Karin S — V2BM6 — position and weather

sailwx.info

Track history (hours):
 
Tides and Currents Weather Stations Pressure Air Temp Water Temp Dewpoint Dewpoint Depression Visibility Wind Speed Wind Dir Waves Ship Positions

Karin S

Last reported at 2014-Aug-19 15:30 UTC. Time now 2014-Aug-23 05:34 UTC.
Position N 37°16' E 002°34'.

Length 148 m; draft 6.9 m.

Type: Ship. MMSI: 304871000.

Date/timePositionNaut miles runAvg speedWind from/ knotsBaromVisibWave heightAir tempDewpointWater temp
2014-Aug-19 15:30N 37°16' E 002°34'14 9.5
2014-Aug-19 14:04N 37°06' E 002°46'5 8.4
2014-Aug-19 13:32N 37°03' E 002°50'9 9.3
2014-Aug-19 12:31N 36°56' E 002°58'9 9.7
2014-Aug-19 11:32N 36°50' E 003°06'4 0.2
2014-Aug-18 16:05N 36°46' E 003°04'0 0.0
2014-Aug-18 15:33N 36°46' E 003°04'0 0.0
2014-Aug-18 08:09N 36°46' E 003°04'  
2014-Aug-12 21:20N 36°46' E 003°07'0 0.3
2014-Aug-12 20:27N 36°46' E 003°07'0 0.0
2014-Aug-12 07:32N 36°46' E 003°07'0 0.0
2014-Aug-12 03:20N 36°46' E 003°07'0 0.0
2014-Aug-12 02:26N 36°46' E 003°07'0 0.1
2014-Aug-12 01:32N 36°46' E 003°07'0 0.1
2014-Aug-12 00:32N 36°46' E 003°07'0 0.0
2014-Aug-11 23:15N 36°46' E 003°07'0 0.0
2014-Aug-11 21:33N 36°46' E 003°07'0 0.0
2014-Aug-11 20:30N 36°46' E 003°07'0 0.0
2014-Aug-11 19:28N 36°46' E 003°07'0 0.0
2014-Aug-11 17:04N 36°46' E 003°07'0 0.0
2014-Aug-11 15:25N 36°46' E 003°07'0 0.0
2014-Aug-11 12:13N 36°46' E 003°07'0 0.0
2014-Aug-11 10:25N 36°46' E 003°07'0 0.0
2014-Aug-11 00:16N 36°46' E 003°07'0 0.1
2014-Aug-10 23:31N 36°46' E 003°07'0 0.0
2014-Aug-10 22:28N 36°46' E 003°07'0 0.0
2014-Aug-10 21:31N 36°46' E 003°07'0 0.0
2014-Aug-10 20:31N 36°46' E 003°07'0 0.0
2014-Aug-10 18:31N 36°46' E 003°07'0 0.0
2014-Aug-10 17:31N 36°46' E 003°07'0 0.1
2014-Aug-10 16:31N 36°46' E 003°07'0 0.0
2014-Aug-10 14:31N 36°46' E 003°07'0 0.0
2014-Aug-10 13:19N 36°46' E 003°07'0 0.0
2014-Aug-10 12:31N 36°46' E 003°07'0 0.0
2014-Aug-10 11:25N 36°46' E 003°07'0 0.0
2014-Aug-10 10:22N 36°46' E 003°07'0 0.0
2014-Aug-10 09:19N 36°46' E 003°07'0 0.0
2014-Aug-10 08:31N 36°46' E 003°07'0 0.0
2014-Aug-10 06:13N 36°46' E 003°07'0 0.0
2014-Aug-09 18:32N 36°46' E 003°07'0 0.0
2014-Aug-09 17:32N 36°46' E 003°07'0 0.1
2014-Aug-09 16:07N 36°46' E 003°07'  
Track history (hours):
 
Tides and Currents Weather Stations Pressure Air Temp Water Temp Dewpoint Dewpoint Depression Visibility Wind Speed Wind Dir Waves Ship Positions

Karin S

Last reported at 2014-Aug-19 15:30 UTC. Time now 2014-Aug-23 05:34 UTC.
Position N 37°16' E 002°34'.

Length 148 m; draft 6.9 m.

Type: Ship. MMSI: 304871000.

Date/timePositionNaut miles runAvg speedWind from/ knotsBaromVisibWave heightAir tempDewpointWater temp
2014-Aug-19 15:30N 37°16' E 002°34'14 9.5
2014-Aug-19 14:04N 37°06' E 002°46'5 8.4
2014-Aug-19 13:32N 37°03' E 002°50'9 9.3
2014-Aug-19 12:31N 36°56' E 002°58'9 9.7
2014-Aug-19 11:32N 36°50' E 003°06'4 0.2
2014-Aug-18 16:05N 36°46' E 003°04'0 0.0
2014-Aug-18 15:33N 36°46' E 003°04'0 0.0
2014-Aug-18 08:09N 36°46' E 003°04'  
2014-Aug-12 21:20N 36°46' E 003°07'0 0.3
2014-Aug-12 20:27N 36°46' E 003°07'0 0.0
2014-Aug-12 07:32N 36°46' E 003°07'0 0.0
2014-Aug-12 03:20N 36°46' E 003°07'0 0.0
2014-Aug-12 02:26N 36°46' E 003°07'0 0.1
2014-Aug-12 01:32N 36°46' E 003°07'0 0.1
2014-Aug-12 00:32N 36°46' E 003°07'0 0.0
2014-Aug-11 23:15N 36°46' E 003°07'0 0.0
2014-Aug-11 21:33N 36°46' E 003°07'0 0.0
2014-Aug-11 20:30N 36°46' E 003°07'0 0.0
2014-Aug-11 19:28N 36°46' E 003°07'0 0.0
2014-Aug-11 17:04N 36°46' E 003°07'0 0.0
2014-Aug-11 15:25N 36°46' E 003°07'0 0.0
2014-Aug-11 12:13N 36°46' E 003°07'0 0.0
2014-Aug-11 10:25N 36°46' E 003°07'0 0.0
2014-Aug-11 00:16N 36°46' E 003°07'0 0.1
2014-Aug-10 23:31N 36°46' E 003°07'0 0.0
2014-Aug-10 22:28N 36°46' E 003°07'0 0.0
2014-Aug-10 21:31N 36°46' E 003°07'0 0.0
2014-Aug-10 20:31N 36°46' E 003°07'0 0.0
2014-Aug-10 18:31N 36°46' E 003°07'0 0.0
2014-Aug-10 17:31N 36°46' E 003°07'0 0.1
2014-Aug-10 16:31N 36°46' E 003°07'0 0.0
2014-Aug-10 14:31N 36°46' E 003°07'0 0.0
2014-Aug-10 13:19N 36°46' E 003°07'0 0.0
2014-Aug-10 12:31N 36°46' E 003°07'0 0.0
2014-Aug-10 11:25N 36°46' E 003°07'0 0.0
2014-Aug-10 10:22N 36°46' E 003°07'0 0.0
2014-Aug-10 09:19N 36°46' E 003°07'0 0.0
2014-Aug-10 08:31N 36°46' E 003°07'0 0.0
2014-Aug-10 06:13N 36°46' E 003°07'0 0.0
2014-Aug-09 18:32N 36°46' E 003°07'0 0.0
2014-Aug-09 17:32N 36°46' E 003°07'0 0.1
2014-Aug-09 16:07N 36°46' E 003°07'  

Dump ship's entire track history